createdAt,value
2022-12-02T00:00:26.896Z,85.12
2022-12-02T00:02:58.565Z,79.99
2022-12-02T00:05:33.349Z,77.52
2022-12-02T00:08:24.234Z,71.44
2022-12-02T00:10:57.763Z,83.41
2022-12-02T00:13:31.908Z,86.45
2022-12-02T00:16:04.972Z,78.09
2022-12-02T00:18:34.773Z,86.83
2022-12-02T00:21:04.581Z,83.79
2022-12-02T00:23:32.966Z,77.14
2022-12-02T00:26:01.340Z,77.14
2022-12-02T00:28:29.768Z,80.94
2022-12-02T00:30:58.467Z,76.76
2022-12-02T00:33:26.567Z,80.94
2022-12-02T00:35:55.045Z,77.71
2022-12-02T00:38:23.511Z,71.06
2022-12-02T00:40:51.879Z,83.41
2022-12-02T00:43:39.267Z,88.35
2022-12-02T00:46:27.948Z,83.79
2022-12-02T00:49:00.134Z,75.24
2022-12-02T00:51:30.192Z,93.67
2022-12-02T00:53:58.294Z,85.31
2022-12-02T00:56:26.220Z,75.81
2022-12-02T00:58:54.411Z,76.76
2022-12-02T01:01:23.723Z,82.46
2022-12-02T01:03:51.311Z,76.76
2022-12-02T01:06:19.945Z,80.94
2022-12-02T01:08:48.194Z,91.01
2022-12-02T01:11:17.652Z,81.13
2022-12-02T01:13:44.977Z,79.99
2022-12-02T01:16:13.396Z,86.45
2022-12-02T01:18:41.764Z,78.09
2022-12-02T01:21:10.231Z,86.64
2022-12-02T01:23:38.570Z,90.06
2022-12-02T01:26:07.051Z,84.36
2022-12-02T01:28:35.568Z,91.58
2022-12-02T01:31:03.987Z,81.51
2022-12-02T01:33:32.233Z,76.76
2022-12-02T01:36:00.676Z,84.36
2022-12-02T01:38:29.115Z,97.66
2022-12-02T01:40:57.927Z,74.29
2022-12-02T01:43:27.182Z,83.41
2022-12-02T01:45:55.272Z,73.34
2022-12-02T01:48:23.238Z,81.13
2022-12-02T01:50:51.403Z,76.00
2022-12-02T01:53:20.043Z,81.89
2022-12-02T01:55:48.376Z,80.18
2022-12-02T01:58:24.341Z,79.80
2022-12-02T02:00:57.814Z,78.66
2022-12-02T02:03:25.327Z,81.51
2022-12-02T02:05:54.626Z,86.07
2022-12-02T02:08:22.895Z,80.56
2022-12-02T02:10:50.828Z,73.72
2022-12-02T02:13:19.019Z,77.14
2022-12-02T02:15:47.487Z,79.04
2022-12-02T02:18:17.146Z,72.20
2022-12-02T02:20:44.417Z,87.59
2022-12-02T02:23:20.577Z,81.13
2022-12-02T02:25:56.133Z,90.44
2022-12-02T02:28:27.126Z,84.55
2022-12-02T02:30:58.687Z,92.91
2022-12-02T02:33:32.121Z,88.35
2022-12-02T02:36:03.901Z,73.34
2022-12-02T02:38:35.797Z,85.88
2022-12-02T02:41:06.732Z,81.89
2022-12-02T02:43:39.497Z,78.47
2022-12-02T02:46:10.397Z,74.29
2022-12-02T02:48:41.615Z,76.95
2022-12-02T02:51:13.401Z,85.31
2022-12-02T02:53:44.420Z,90.06
2022-12-02T02:56:15.324Z,75.81
2022-12-02T02:58:45.208Z,76.38
2022-12-02T03:01:22.312Z,70.30
2022-12-02T03:04:00.828Z,76.95
2022-12-02T03:06:34.019Z,86.07
2022-12-02T03:09:06.210Z,84.17
2022-12-02T03:11:38.384Z,72.58
2022-12-02T03:14:14.241Z,72.96
2022-12-02T03:16:47.066Z,80.37
2022-12-02T03:19:18.297Z,95.00
2022-12-02T03:21:48.750Z,85.12
2022-12-02T03:24:18.501Z,83.79
2022-12-02T03:26:49.050Z,87.02
2022-12-02T03:29:20.409Z,69.35
2022-12-02T03:31:50.292Z,76.38
2022-12-02T03:34:20.555Z,66.88
2022-12-02T03:36:50.587Z,78.66
2022-12-02T03:39:21.192Z,72.20
2022-12-02T03:41:51.308Z,76.00
2022-12-02T03:44:22.052Z,82.46
2022-12-02T03:46:52.160Z,72.58
2022-12-02T03:49:24.042Z,78.47
2022-12-02T03:51:54.000Z,72.77
2022-12-02T03:54:24.158Z,76.57
2022-12-02T03:56:54.170Z,79.80
2022-12-02T03:59:27.965Z,78.66
2022-12-02T04:01:58.212Z,78.85
2022-12-02T04:04:27.967Z,66.69
2022-12-02T04:06:57.875Z,66.69
2022-12-02T04:09:26.284Z,67.07
2022-12-02T04:11:54.624Z,69.35
2022-12-02T04:14:23.190Z,69.35
2022-12-02T04:16:51.536Z,74.29
2022-12-02T04:19:19.918Z,74.29
2022-12-02T04:21:48.693Z,74.67
2022-12-02T04:24:16.741Z,69.54
2022-12-02T04:26:45.275Z,66.88
2022-12-02T04:29:13.553Z,73.72
2022-12-02T04:31:42.051Z,71.63
2022-12-02T04:34:10.405Z,68.78
2022-12-02T04:36:39.125Z,69.92
2022-12-02T04:39:07.427Z,64.22
2022-12-02T04:41:35.827Z,60.61
2022-12-02T04:44:04.363Z,64.79
2022-12-02T04:46:32.084Z,67.64
2022-12-02T04:49:00.168Z,62.70
2022-12-02T04:51:28.672Z,68.78
2022-12-02T04:53:56.986Z,65.17
2022-12-02T04:56:25.545Z,60.61
2022-12-02T04:58:54.061Z,61.56
2022-12-02T05:01:22.308Z,56.05
2022-12-02T05:03:50.778Z,53.58
2022-12-02T05:06:19.198Z,60.42
2022-12-02T05:08:47.673Z,63.27
2022-12-02T05:11:16.003Z,58.90
2022-12-02T05:13:44.440Z,59.47
2022-12-02T05:16:13.147Z,57.57
2022-12-02T05:18:41.202Z,55.86
2022-12-02T05:21:09.582Z,63.65
2022-12-02T05:23:38.039Z,64.98
2022-12-02T05:26:06.521Z,61.94
2022-12-02T05:28:34.939Z,54.91
2022-12-02T05:31:03.680Z,57.95
2022-12-02T05:33:31.964Z,64.41
2022-12-02T05:36:00.343Z,62.51
2022-12-02T05:38:28.738Z,54.91
2022-12-02T05:40:57.259Z,57.76
2022-12-02T05:43:27.018Z,56.62
2022-12-02T05:45:59.642Z,58.33
2022-12-02T05:48:33.047Z,61.94
2022-12-02T05:51:06.197Z,66.50
2022-12-02T05:53:36.109Z,51.11
2022-12-02T05:56:11.967Z,52.82
2022-12-02T05:58:42.049Z,60.23
2022-12-02T06:01:39.877Z,58.71
2022-12-02T06:04:17.951Z,55.67
2022-12-02T06:06:48.197Z,51.49
2022-12-02T06:09:24.377Z,59.66
2022-12-02T06:11:54.884Z,52.63
2022-12-02T06:14:31.649Z,64.22
2022-12-02T06:17:10.475Z,55.67
2022-12-02T06:19:57.844Z,58.71
2022-12-02T06:22:32.856Z,56.05
2022-12-02T06:25:06.755Z,53.77
2022-12-02T06:27:36.496Z,54.34
2022-12-02T06:30:07.782Z,51.49
2022-12-02T06:32:40.288Z,51.30
2022-12-02T06:35:27.536Z,53.77
2022-12-02T06:38:02.279Z,50.16
2022-12-02T06:40:34.428Z,46.36
2022-12-02T06:43:19.380Z,53.96
2022-12-02T06:45:49.094Z,48.83
2022-12-02T06:48:33.159Z,47.31
2022-12-02T06:51:20.392Z,50.35
2022-12-02T06:53:50.186Z,49.78
2022-12-02T06:56:24.428Z,51.68
2022-12-02T06:59:03.728Z,60.61
2022-12-02T07:01:41.366Z,51.49
2022-12-02T07:04:09.337Z,51.49
2022-12-02T07:06:50.070Z,45.03
2022-12-02T07:09:45.660Z,44.65
2022-12-02T07:12:39.123Z,49.02
2022-12-02T07:15:30.756Z,49.21
2022-12-02T07:18:16.719Z,46.55
2022-12-02T07:20:48.671Z,45.03
2022-12-02T07:23:27.885Z,52.82
2022-12-02T07:26:00.722Z,55.67
2022-12-02T07:28:45.159Z,50.92
2022-12-02T07:31:21.995Z,45.60
2022-12-02T07:33:52.209Z,49.59
2022-12-02T07:36:19.814Z,56.62
2022-12-02T07:41:37.205Z,47.31
2022-12-02T07:44:07.318Z,56.05
2022-12-02T07:46:37.140Z,54.53
2022-12-02T07:49:06.972Z,53.20
2022-12-02T07:51:37.066Z,56.81
2022-12-02T07:54:06.854Z,58.14
2022-12-02T07:56:37.028Z,60.61
2022-12-02T07:59:14.399Z,60.80
2022-12-02T08:01:42.484Z,52.06
2022-12-02T08:04:12.856Z,58.33
2022-12-02T08:06:40.905Z,45.60
2022-12-02T08:09:10.183Z,49.97
2022-12-02T08:11:37.723Z,52.25
2022-12-02T08:14:06.234Z,58.14
2022-12-02T08:16:35.403Z,52.63
2022-12-02T08:19:03.018Z,56.43
2022-12-02T08:21:32.526Z,46.55
2022-12-02T08:24:00.555Z,59.28
2022-12-02T08:26:28.073Z,59.09
2022-12-02T08:28:56.656Z,49.40
2022-12-02T08:31:25.775Z,51.30
2022-12-02T08:33:53.571Z,50.16
2022-12-02T08:36:22.933Z,56.05
2022-12-02T08:38:50.806Z,53.20
2022-12-02T08:41:19.184Z,54.91
2022-12-02T08:43:47.821Z,55.29
2022-12-02T08:46:16.271Z,50.73
2022-12-02T08:48:44.267Z,48.07
2022-12-02T08:51:12.498Z,51.87
2022-12-02T08:53:40.925Z,60.61
2022-12-02T08:56:09.331Z,51.30
2022-12-02T08:58:37.809Z,52.82
2022-12-02T09:01:06.878Z,49.97
2022-12-02T09:03:35.167Z,50.35
2022-12-02T09:06:03.451Z,53.01
2022-12-02T09:08:31.973Z,44.65
2022-12-02T09:11:00.536Z,53.01
2022-12-02T09:13:28.245Z,56.62
2022-12-02T09:15:56.763Z,52.25
2022-12-02T09:18:25.277Z,60.99
2022-12-02T09:20:53.578Z,55.10
2022-12-02T09:23:22.199Z,56.81
2022-12-02T09:25:50.434Z,56.62
2022-12-02T09:28:20.542Z,62.89
2022-12-02T09:30:51.266Z,57.57
2022-12-02T09:33:18.758Z,66.88
2022-12-02T09:35:47.169Z,64.22
2022-12-02T09:38:15.536Z,47.50
2022-12-02T09:40:44.212Z,60.80
2022-12-02T09:43:12.787Z,64.22
2022-12-02T09:45:42.241Z,52.44
2022-12-02T09:48:09.357Z,59.09
2022-12-02T09:50:39.972Z,64.22
2022-12-02T09:53:15.958Z,57.19
2022-12-02T09:55:45.661Z,61.94
2022-12-02T09:58:19.538Z,60.80
2022-12-02T10:00:52.821Z,62.32
2022-12-02T10:03:29.470Z,53.77
2022-12-02T10:06:13.749Z,68.21
2022-12-02T10:08:40.829Z,57.00
2022-12-02T10:11:07.904Z,56.24
2022-12-02T10:13:41.180Z,65.93
2022-12-02T10:16:13.549Z,65.17
2022-12-02T10:18:43.983Z,55.48
2022-12-02T10:21:14.176Z,52.63
2022-12-02T10:23:56.424Z,58.71
2022-12-02T10:26:41.979Z,68.78
2022-12-02T10:29:18.822Z,66.31
2022-12-02T10:32:07.908Z,66.31
2022-12-02T10:34:37.585Z,68.02
2022-12-02T10:37:26.309Z,69.73
2022-12-02T10:40:18.834Z,65.74
2022-12-02T10:43:11.306Z,59.28
2022-12-02T10:45:41.185Z,53.77
2022-12-02T10:48:17.190Z,76.19
2022-12-02T10:50:47.002Z,66.88
2022-12-02T10:53:19.538Z,71.63
2022-12-02T10:55:49.321Z,68.97
2022-12-02T10:58:37.283Z,68.02
2022-12-02T11:01:11.885Z,72.01
2022-12-02T11:03:41.810Z,73.72
2022-12-02T11:06:19.524Z,71.63
2022-12-02T11:08:49.344Z,64.22
2022-12-02T11:11:39.828Z,67.07
2022-12-02T11:14:41.131Z,63.84
2022-12-02T11:17:13.101Z,60.99
2022-12-02T11:19:46.642Z,68.59
2022-12-02T11:23:06.221Z,64.60
2022-12-02T11:25:44.571Z,67.64
2022-12-02T11:28:28.488Z,62.51
2022-12-02T11:31:10.518Z,69.92
2022-12-02T11:33:53.570Z,75.24
2022-12-02T11:36:27.802Z,73.53
2022-12-02T11:38:57.319Z,68.40
2022-12-02T11:41:47.334Z,71.06
2022-12-02T11:44:29.945Z,65.17
2022-12-02T11:47:03.520Z,65.74
2022-12-02T11:49:42.101Z,72.20
2022-12-02T11:52:14.120Z,64.79
2022-12-02T11:54:53.895Z,62.13
2022-12-02T11:57:39.873Z,68.40
2022-12-02T12:00:25.789Z,67.07
2022-12-02T12:03:18.923Z,71.82
2022-12-02T12:06:12.857Z,64.79
2022-12-02T12:08:56.774Z,59.28
2022-12-02T12:11:37.317Z,65.17
2022-12-02T12:14:07.312Z,71.06
2022-12-02T12:16:44.057Z,61.18
2022-12-02T12:19:13.633Z,64.79
2022-12-02T12:21:46.800Z,63.65
2022-12-02T12:24:17.583Z,50.16
2022-12-02T12:26:51.549Z,65.17
2022-12-02T12:29:29.964Z,66.69
2022-12-02T12:32:00.311Z,58.14
2022-12-02T12:34:31.575Z,53.01
2022-12-02T12:37:01.670Z,60.42
2022-12-02T12:39:31.388Z,63.08
2022-12-02T12:42:01.931Z,63.46
2022-12-02T12:44:32.978Z,54.91
2022-12-02T12:47:06.919Z,54.15
2022-12-02T12:49:36.734Z,74.10
2022-12-02T12:52:06.530Z,57.76
2022-12-02T12:54:36.631Z,71.06
2022-12-02T12:57:06.378Z,76.00
2022-12-02T12:59:36.218Z,72.01
2022-12-02T13:02:11.958Z,68.02
2022-12-02T13:04:41.792Z,63.27
2022-12-02T13:07:11.530Z,70.49
2022-12-02T13:09:41.277Z,62.70
2022-12-02T13:12:17.812Z,71.06
2022-12-02T13:14:47.669Z,67.64
2022-12-02T13:17:17.509Z,66.88
2022-12-02T13:19:47.323Z,72.01
2022-12-02T13:22:17.354Z,64.98
2022-12-02T13:24:47.099Z,66.12
2022-12-02T13:27:16.837Z,78.09
2022-12-02T13:29:46.692Z,72.96
2022-12-02T13:32:16.758Z,70.49
2022-12-02T13:34:46.572Z,64.41
2022-12-02T13:37:16.574Z,66.88
2022-12-02T13:39:46.438Z,75.62
2022-12-02T13:42:18.960Z,76.00
2022-12-02T13:44:46.233Z,76.00
2022-12-02T13:47:14.735Z,76.76
2022-12-02T13:49:43.188Z,70.49
2022-12-02T13:52:11.549Z,76.38
2022-12-02T13:54:40.114Z,71.25
2022-12-02T13:57:08.965Z,71.25
2022-12-02T13:59:38.585Z,72.58
2022-12-02T14:02:12.392Z,65.93
2022-12-02T14:04:42.134Z,75.05
2022-12-02T14:07:11.950Z,75.81
2022-12-02T14:09:41.776Z,76.95
2022-12-02T14:12:15.137Z,67.64
2022-12-02T14:14:44.825Z,75.81
2022-12-02T14:17:14.636Z,65.74
2022-12-02T14:19:44.750Z,68.02
2022-12-02T14:22:14.505Z,71.06
2022-12-02T14:24:48.595Z,77.71
2022-12-02T14:27:18.844Z,71.44
2022-12-02T14:29:48.648Z,62.89
2022-12-02T14:32:18.387Z,70.11
2022-12-02T14:34:48.205Z,58.90
2022-12-02T14:37:17.941Z,79.61
2022-12-02T14:39:47.954Z,80.56
2022-12-02T14:42:16.958Z,76.38
2022-12-02T14:44:44.486Z,69.16
2022-12-02T14:47:12.895Z,77.33
2022-12-02T14:49:42.204Z,75.05
2022-12-02T14:52:09.821Z,80.94
2022-12-02T14:54:38.578Z,78.66
2022-12-02T14:57:07.362Z,66.69
2022-12-02T14:59:35.113Z,83.98
2022-12-02T15:02:03.603Z,75.43
2022-12-02T15:04:31.916Z,85.88
2022-12-02T15:07:00.680Z,82.84
2022-12-02T15:09:29.217Z,75.05
2022-12-02T15:11:57.824Z,87.40
2022-12-02T15:14:25.726Z,77.52
2022-12-02T15:16:54.079Z,85.69
2022-12-02T15:19:22.516Z,49.78
2022-12-02T15:21:50.929Z,91.20
2022-12-02T15:24:19.282Z,81.89
2022-12-02T15:26:52.320Z,78.85
2022-12-02T15:29:24.985Z,76.95
2022-12-02T15:31:53.428Z,96.52
2022-12-02T15:34:21.991Z,86.45
2022-12-02T15:36:50.240Z,75.62
2022-12-02T15:39:18.676Z,71.06
2022-12-02T15:41:47.105Z,75.43
2022-12-02T15:44:15.519Z,78.09
2022-12-02T15:46:44.057Z,79.80
2022-12-02T15:49:12.617Z,80.75
2022-12-02T15:51:40.909Z,79.61
2022-12-02T15:54:09.478Z,79.80
2022-12-02T15:56:39.276Z,73.72
2022-12-02T15:59:07.677Z,67.64
2022-12-02T16:01:36.279Z,81.32
2022-12-02T16:04:04.805Z,60.42
2022-12-02T16:06:33.378Z,68.40
2022-12-02T16:09:01.447Z,76.57
2022-12-02T16:11:29.938Z,69.16
2022-12-02T16:13:58.340Z,78.66
2022-12-02T16:16:26.908Z,69.35
2022-12-02T16:18:55.166Z,81.32
2022-12-02T16:21:23.586Z,59.85
2022-12-02T16:23:52.814Z,74.10
2022-12-02T16:26:20.467Z,72.20
2022-12-02T16:28:49.061Z,77.52
2022-12-02T16:31:17.441Z,62.32
2022-12-02T16:33:45.665Z,79.80
2022-12-02T16:36:14.186Z,76.00
2022-12-02T16:38:42.560Z,82.08
2022-12-02T16:41:10.988Z,72.01
2022-12-02T16:43:39.585Z,90.44
2022-12-02T16:46:08.233Z,82.46
2022-12-02T16:48:37.058Z,82.27
2022-12-02T16:51:05.668Z,79.42
2022-12-02T16:53:33.838Z,80.75
2022-12-02T16:56:02.423Z,71.06
2022-12-02T16:58:30.730Z,76.19
2022-12-02T17:00:59.252Z,75.43
2022-12-02T17:03:27.481Z,77.71
2022-12-02T17:05:56.059Z,81.32
2022-12-02T17:08:24.915Z,88.16
2022-12-02T17:10:52.845Z,87.97
2022-12-02T17:13:21.385Z,81.51
2022-12-02T17:15:50.065Z,85.69
2022-12-02T17:18:18.131Z,87.02
2022-12-02T17:20:50.986Z,79.04
2022-12-02T17:23:23.981Z,79.80
2022-12-02T17:25:53.778Z,87.02
2022-12-02T17:28:23.735Z,98.23
2022-12-02T17:30:52.078Z,85.69
2022-12-02T17:33:20.896Z,96.33
2022-12-02T17:35:48.993Z,85.88
2022-12-02T17:38:17.368Z,95.95
2022-12-02T17:40:46.023Z,88.16
2022-12-02T17:43:14.367Z,80.37
2022-12-02T17:45:42.617Z,100.13
2022-12-02T17:48:11.080Z,77.33
2022-12-02T17:50:39.436Z,93.29
2022-12-02T17:53:07.977Z,83.22
2022-12-02T17:55:36.514Z,81.70
2022-12-02T17:58:04.883Z,83.60
2022-12-02T18:00:33.366Z,95.00
2022-12-02T18:03:02.161Z,69.54
2022-12-02T18:05:30.473Z,94.62
2022-12-02T18:07:59.784Z,85.12
2022-12-02T18:10:28.315Z,87.21
2022-12-02T18:12:56.490Z,91.20
2022-12-02T18:15:24.977Z,92.53
2022-12-02T18:17:53.288Z,96.52
2022-12-02T18:20:21.729Z,93.48
2022-12-02T18:22:50.154Z,100.70
2022-12-02T18:25:18.708Z,92.53
2022-12-02T18:27:47.949Z,87.78
2022-12-02T18:30:17.710Z,95.00
2022-12-02T18:32:47.204Z,100.51
2022-12-02T18:35:16.677Z,100.32
2022-12-02T18:37:46.416Z,87.21
2022-12-02T18:40:19.434Z,87.97
2022-12-02T18:42:49.209Z,96.14
2022-12-02T18:45:19.054Z,97.47
2022-12-02T18:47:48.828Z,79.80
2022-12-02T18:50:18.696Z,110.58
2022-12-02T18:52:49.450Z,100.89
2022-12-02T18:55:19.220Z,106.40
2022-12-02T18:57:48.933Z,111.53
2022-12-02T19:00:19.240Z,93.48
2022-12-02T19:02:48.921Z,95.95
2022-12-02T19:05:18.732Z,109.06
2022-12-02T19:07:48.507Z,113.62
2022-12-02T19:10:18.663Z,112.10
2022-12-02T19:12:48.401Z,103.36
2022-12-02T19:15:18.246Z,108.11
2022-12-02T19:17:48.055Z,98.61
2022-12-02T19:20:18.074Z,93.48
2022-12-02T19:22:47.800Z,96.90
2022-12-02T19:25:17.536Z,88.35
2022-12-02T19:27:57.544Z,95.38
2022-12-02T19:30:28.067Z,94.81
2022-12-02T19:32:57.790Z,80.37
2022-12-02T19:35:27.606Z,81.32
2022-12-02T19:38:03.732Z,84.36
2022-12-02T19:40:44.016Z,71.06
2022-12-02T19:43:16.570Z,78.47
2022-12-02T19:45:46.423Z,77.14
2022-12-02T19:48:16.245Z,65.36
2022-12-02T19:50:46.025Z,69.16
2022-12-02T19:53:15.949Z,70.87
2022-12-02T19:55:44.303Z,59.09
2022-12-02T19:58:12.852Z,71.63
2022-12-02T20:00:41.135Z,77.71
2022-12-02T20:03:09.660Z,70.49
2022-12-02T20:05:38.104Z,71.25
2022-12-02T20:08:06.602Z,79.61
2022-12-02T20:10:35.258Z,83.60
2022-12-02T20:13:03.277Z,84.93
2022-12-02T20:15:32.007Z,72.01
2022-12-02T20:18:00.310Z,61.18
2022-12-02T20:20:28.756Z,73.72
2022-12-02T20:22:56.990Z,86.45
2022-12-02T20:25:25.576Z,75.43
2022-12-02T20:27:54.808Z,77.52
2022-12-02T20:30:23.527Z,70.30
2022-12-02T20:32:50.772Z,67.07
2022-12-02T20:35:19.255Z,73.15
2022-12-02T20:37:47.844Z,76.19
2022-12-02T20:40:16.128Z,72.01
2022-12-02T20:42:44.486Z,83.98
2022-12-02T20:45:13.107Z,73.53
2022-12-02T20:47:41.504Z,85.88
2022-12-02T20:50:11.008Z,87.78
2022-12-02T20:52:38.221Z,79.04
2022-12-02T20:55:08.170Z,90.82
2022-12-02T20:57:35.324Z,64.41
2022-12-02T21:00:05.503Z,95.38
2022-12-02T21:02:35.086Z,88.16
2022-12-02T21:05:03.531Z,78.47
2022-12-02T21:07:32.006Z,93.29
2022-12-02T21:10:00.214Z,97.28
2022-12-02T21:12:28.744Z,88.16
2022-12-02T21:14:57.136Z,85.69
2022-12-02T21:17:26.862Z,85.88
2022-12-02T21:19:54.025Z,87.97
2022-12-02T21:22:21.038Z,81.32
2022-12-02T21:24:48.109Z,90.44
2022-12-02T21:27:16.530Z,76.00
2022-12-02T21:29:45.176Z,81.13
2022-12-02T21:32:13.383Z,81.70
2022-12-02T21:34:41.873Z,94.05
2022-12-02T21:37:10.283Z,92.53
2022-12-02T21:39:38.510Z,86.26
2022-12-02T21:42:09.135Z,97.47
2022-12-02T21:44:39.001Z,98.42
2022-12-02T21:47:08.966Z,90.63
2022-12-02T21:49:38.783Z,96.33
2022-12-02T21:52:08.570Z,96.90
2022-12-02T21:54:38.397Z,105.07
2022-12-02T21:57:08.176Z,101.27
2022-12-02T21:59:38.029Z,99.75
2022-12-02T22:02:08.024Z,103.74
2022-12-02T22:04:37.778Z,119.13
2022-12-02T22:07:26.263Z,91.58
2022-12-02T22:09:55.430Z,106.02
2022-12-02T22:12:23.665Z,101.84
2022-12-02T22:14:52.358Z,112.10
2022-12-02T22:17:19.955Z,112.48
2022-12-02T22:19:48.389Z,104.88
2022-12-02T22:22:17.017Z,105.64
2022-12-02T22:24:45.293Z,101.08
2022-12-02T22:27:13.603Z,96.52
2022-12-02T22:29:41.988Z,120.27
2022-12-02T22:32:10.354Z,101.65
2022-12-02T22:34:38.796Z,91.77
2022-12-02T22:37:07.236Z,98.61
2022-12-02T22:39:35.645Z,102.41
2022-12-02T22:42:04.197Z,107.73
2022-12-02T22:44:32.598Z,117.42
2022-12-02T22:47:00.951Z,93.67
2022-12-02T22:49:29.309Z,109.44
2022-12-02T22:51:57.697Z,99.75
2022-12-02T22:54:26.203Z,109.44
2022-12-02T22:56:54.814Z,102.03
2022-12-02T22:59:23.102Z,90.63
2022-12-02T23:01:51.455Z,95.38
2022-12-02T23:04:18.250Z,97.09
2022-12-02T23:06:46.949Z,110.01
2022-12-02T23:09:16.104Z,90.25
2022-12-02T23:11:43.660Z,96.33
2022-12-02T23:14:12.160Z,100.32
2022-12-02T23:16:40.463Z,108.11
2022-12-02T23:19:08.881Z,100.32
2022-12-02T23:21:37.317Z,86.83
2022-12-02T23:24:06.520Z,103.17
2022-12-02T23:26:34.179Z,96.14
2022-12-02T23:29:02.857Z,95.76
2022-12-02T23:31:31.119Z,109.63
2022-12-02T23:33:59.492Z,86.45
2022-12-02T23:36:33.471Z,97.28
2022-12-02T23:39:04.563Z,107.92
2022-12-02T23:41:34.297Z,96.14
2022-12-02T23:44:04.355Z,105.83
2022-12-02T23:46:34.493Z,93.10
2022-12-02T23:49:04.496Z,99.37
2022-12-02T23:51:34.487Z,93.67
2022-12-02T23:54:04.407Z,93.29
2022-12-02T23:56:34.230Z,99.18
2022-12-02T23:59:04.036Z,98.23
